sensor_id;sensor_type;location;lat;lon;timestamp;P1;durP1;ratioP1;P2;durP2;ratioP2
6735;SDS011;3405;50.576;12.364;2023-07-31T00:01:56;7.15;;;3.13;;
6735;SDS011;3405;50.576;12.364;2023-07-31T00:04:22;6.00;;;3.88;;
6735;SDS011;3405;50.576;12.364;2023-07-31T00:06:48;5.35;;;3.10;;
6735;SDS011;3405;50.576;12.364;2023-07-31T00:09:14;4.35;;;3.05;;
6735;SDS011;3405;50.576;12.364;2023-07-31T00:11:40;5.32;;;3.55;;
6735;SDS011;3405;50.576;12.364;2023-07-31T00:14:06;6.15;;;3.33;;
6735;SDS011;3405;50.576;12.364;2023-07-31T00:16:31;3.72;;;2.80;;
6735;SDS011;3405;50.576;12.364;2023-07-31T00:18:58;4.03;;;2.95;;
6735;SDS011;3405;50.576;12.364;2023-07-31T00:21:23;4.88;;;3.03;;
6735;SDS011;3405;50.576;12.364;2023-07-31T00:23:49;5.22;;;3.72;;
6735;SDS011;3405;50.576;12.364;2023-07-31T00:26:15;6.68;;;3.25;;
6735;SDS011;3405;50.576;12.364;2023-07-31T00:28:41;5.90;;;3.13;;
6735;SDS011;3405;50.576;12.364;2023-07-31T00:31:07;4.03;;;2.95;;
6735;SDS011;3405;50.576;12.364;2023-07-31T00:33:34;4.13;;;2.85;;
6735;SDS011;3405;50.576;12.364;2023-07-31T00:36:01;4.05;;;2.60;;
6735;SDS011;3405;50.576;12.364;2023-07-31T00:38:27;5.82;;;3.00;;
6735;SDS011;3405;50.576;12.364;2023-07-31T00:40:53;5.30;;;2.58;;
6735;SDS011;3405;50.576;12.364;2023-07-31T00:43:19;4.20;;;2.60;;
6735;SDS011;3405;50.576;12.364;2023-07-31T00:45:45;2.47;;;2.20;;
6735;SDS011;3405;50.576;12.364;2023-07-31T00:48:10;7.00;;;2.88;;
6735;SDS011;3405;50.576;12.364;2023-07-31T00:50:37;4.65;;;2.60;;
6735;SDS011;3405;50.576;12.364;2023-07-31T00:53:03;8.35;;;2.40;;
6735;SDS011;3405;50.576;12.364;2023-07-31T00:55:29;4.75;;;2.40;;
6735;SDS011;3405;50.576;12.364;2023-07-31T00:57:55;3.05;;;2.03;;
6735;SDS011;3405;50.576;12.364;2023-07-31T01:00:21;4.28;;;2.20;;
6735;SDS011;3405;50.576;12.364;2023-07-31T01:02:48;4.97;;;2.35;;
6735;SDS011;3405;50.576;12.364;2023-07-31T01:05:14;3.85;;;2.08;;
6735;SDS011;3405;50.576;12.364;2023-07-31T01:07:52;5.63;;;2.20;;
6735;SDS011;3405;50.576;12.364;2023-07-31T01:10:23;3.17;;;2.03;;
6735;SDS011;3405;50.576;12.364;2023-07-31T01:12:50;3.65;;;2.13;;
6735;SDS011;3405;50.576;12.364;2023-07-31T01:15:16;2.65;;;2.03;;
6735;SDS011;3405;50.576;12.364;2023-07-31T01:17:43;4.22;;;2.15;;
6735;SDS011;3405;50.576;12.364;2023-07-31T01:20:15;2.03;;;1.83;;
6735;SDS011;3405;50.576;12.364;2023-07-31T01:22:58;4.82;;;1.70;;
6735;SDS011;3405;50.576;12.364;2023-07-31T01:25:35;3.00;;;1.95;;
6735;SDS011;3405;50.576;12.364;2023-07-31T01:28:09;2.33;;;1.80;;
6735;SDS011;3405;50.576;12.364;2023-07-31T01:30:38;3.20;;;1.80;;
6735;SDS011;3405;50.576;12.364;2023-07-31T01:33:07;2.70;;;1.70;;
6735;SDS011;3405;50.576;12.364;2023-07-31T01:35:34;3.28;;;1.58;;
6735;SDS011;3405;50.576;12.364;2023-07-31T01:38:03;2.45;;;1.80;;
6735;SDS011;3405;50.576;12.364;2023-07-31T01:40:30;4.47;;;1.60;;
6735;SDS011;3405;50.576;12.364;2023-07-31T01:42:56;2.97;;;1.80;;
6735;SDS011;3405;50.576;12.364;2023-07-31T01:45:22;2.88;;;1.73;;
6735;SDS011;3405;50.576;12.364;2023-07-31T01:47:48;4.30;;;1.85;;
6735;SDS011;3405;50.576;12.364;2023-07-31T01:50:14;1.77;;;1.52;;
6735;SDS011;3405;50.576;12.364;2023-07-31T01:52:39;3.38;;;1.70;;
6735;SDS011;3405;50.576;12.364;2023-07-31T01:55:05;3.10;;;1.85;;
6735;SDS011;3405;50.576;12.364;2023-07-31T01:57:31;5.20;;;2.20;;
6735;SDS011;3405;50.576;12.364;2023-07-31T01:59:57;5.50;;;2.10;;
6735;SDS011;3405;50.576;12.364;2023-07-31T02:02:23;3.45;;;1.50;;
6735;SDS011;3405;50.576;12.364;2023-07-31T02:04:49;2.92;;;1.60;;
6735;SDS011;3405;50.576;12.364;2023-07-31T02:07:15;3.30;;;1.77;;
6735;SDS011;3405;50.576;12.364;2023-07-31T02:09:41;3.15;;;1.65;;
6735;SDS011;3405;50.576;12.364;2023-07-31T02:12:07;2.72;;;1.58;;
6735;SDS011;3405;50.576;12.364;2023-07-31T02:14:34;2.47;;;1.63;;
6735;SDS011;3405;50.576;12.364;2023-07-31T02:17:00;5.65;;;1.85;;
6735;SDS011;3405;50.576;12.364;2023-07-31T02:19:26;2.72;;;1.60;;
6735;SDS011;3405;50.576;12.364;2023-07-31T02:21:52;4.20;;;1.58;;
6735;SDS011;3405;50.576;12.364;2023-07-31T02:24:17;2.47;;;1.42;;
6735;SDS011;3405;50.576;12.364;2023-07-31T02:26:43;3.90;;;1.67;;
6735;SDS011;3405;50.576;12.364;2023-07-31T02:29:09;2.17;;;1.63;;
6735;SDS011;3405;50.576;12.364;2023-07-31T02:31:35;3.00;;;1.67;;
6735;SDS011;3405;50.576;12.364;2023-07-31T02:34:01;3.05;;;1.70;;
6735;SDS011;3405;50.576;12.364;2023-07-31T02:36:27;1.92;;;1.60;;
6735;SDS011;3405;50.576;12.364;2023-07-31T02:38:53;3.63;;;1.45;;
6735;SDS011;3405;50.576;12.364;2023-07-31T02:41:20;4.50;;;1.80;;
6735;SDS011;3405;50.576;12.364;2023-07-31T02:43:46;2.75;;;1.52;;
6735;SDS011;3405;50.576;12.364;2023-07-31T02:46:12;3.05;;;1.52;;
6735;SDS011;3405;50.576;12.364;2023-07-31T02:48:38;2.20;;;1.63;;
6735;SDS011;3405;50.576;12.364;2023-07-31T02:51:03;3.45;;;1.67;;
6735;SDS011;3405;50.576;12.364;2023-07-31T02:53:29;2.00;;;1.40;;
6735;SDS011;3405;50.576;12.364;2023-07-31T02:55:55;2.83;;;1.70;;
6735;SDS011;3405;50.576;12.364;2023-07-31T02:58:21;4.20;;;1.40;;
6735;SDS011;3405;50.576;12.364;2023-07-31T03:00:47;4.35;;;1.55;;
6735;SDS011;3405;50.576;12.364;2023-07-31T03:03:13;2.25;;;1.40;;
6735;SDS011;3405;50.576;12.364;2023-07-31T03:05:39;1.95;;;1.60;;
6735;SDS011;3405;50.576;12.364;2023-07-31T03:08:05;1.75;;;1.30;;
6735;SDS011;3405;50.576;12.364;2023-07-31T03:10:31;3.20;;;1.60;;
6735;SDS011;3405;50.576;12.364;2023-07-31T03:12:57;2.20;;;1.30;;
6735;SDS011;3405;50.576;12.364;2023-07-31T03:15:23;1.48;;;1.35;;
6735;SDS011;3405;50.576;12.364;2023-07-31T03:17:49;3.47;;;1.58;;
6735;SDS011;3405;50.576;12.364;2023-07-31T03:20:15;2.83;;;1.20;;
6735;SDS011;3405;50.576;12.364;2023-07-31T03:22:41;2.13;;;1.65;;
6735;SDS011;3405;50.576;12.364;2023-07-31T03:25:07;2.40;;;1.45;;
6735;SDS011;3405;50.576;12.364;2023-07-31T03:27:34;3.78;;;1.85;;
6735;SDS011;3405;50.576;12.364;2023-07-31T03:30:00;3.83;;;1.30;;
6735;SDS011;3405;50.576;12.364;2023-07-31T03:32:26;2.92;;;1.67;;
6735;SDS011;3405;50.576;12.364;2023-07-31T03:34:52;4.07;;;1.58;;
6735;SDS011;3405;50.576;12.364;2023-07-31T03:37:18;3.97;;;1.55;;
6735;SDS011;3405;50.576;12.364;2023-07-31T03:39:44;6.65;;;1.42;;
6735;SDS011;3405;50.576;12.364;2023-07-31T03:42:10;2.95;;;1.60;;
6735;SDS011;3405;50.576;12.364;2023-07-31T03:44:36;1.85;;;1.40;;
6735;SDS011;3405;50.576;12.364;2023-07-31T03:47:02;6.07;;;1.35;;
6735;SDS011;3405;50.576;12.364;2023-07-31T03:49:28;4.63;;;2.00;;
6735;SDS011;3405;50.576;12.364;2023-07-31T03:51:54;3.97;;;1.63;;
6735;SDS011;3405;50.576;12.364;2023-07-31T03:54:20;4.80;;;1.60;;
6735;SDS011;3405;50.576;12.364;2023-07-31T03:56:46;4.07;;;1.60;;
6735;SDS011;3405;50.576;12.364;2023-07-31T03:59:12;5.22;;;1.50;;
6735;SDS011;3405;50.576;12.364;2023-07-31T04:01:38;5.57;;;1.60;;
6735;SDS011;3405;50.576;12.364;2023-07-31T04:04:04;3.25;;;1.38;;
6735;SDS011;3405;50.576;12.364;2023-07-31T04:06:30;4.20;;;1.55;;
6735;SDS011;3405;50.576;12.364;2023-07-31T04:08:56;3.75;;;1.70;;
6735;SDS011;3405;50.576;12.364;2023-07-31T04:11:22;3.88;;;1.67;;
6735;SDS011;3405;50.576;12.364;2023-07-31T04:13:48;3.65;;;1.42;;
6735;SDS011;3405;50.576;12.364;2023-07-31T04:16:14;5.43;;;2.03;;
6735;SDS011;3405;50.576;12.364;2023-07-31T04:18:40;5.88;;;1.88;;
6735;SDS011;3405;50.576;12.364;2023-07-31T04:21:06;3.42;;;1.65;;
6735;SDS011;3405;50.576;12.364;2023-07-31T04:23:32;4.43;;;1.75;;
6735;SDS011;3405;50.576;12.364;2023-07-31T04:25:58;5.78;;;1.85;;
6735;SDS011;3405;50.576;12.364;2023-07-31T04:28:24;4.53;;;1.67;;
6735;SDS011;3405;50.576;12.364;2023-07-31T04:30:51;2.70;;;1.48;;
6735;SDS011;3405;50.576;12.364;2023-07-31T04:33:17;4.07;;;1.52;;
6735;SDS011;3405;50.576;12.364;2023-07-31T04:35:50;3.10;;;1.83;;
6735;SDS011;3405;50.576;12.364;2023-07-31T04:38:17;3.92;;;1.55;;
6735;SDS011;3405;50.576;12.364;2023-07-31T04:40:43;5.18;;;1.95;;
6735;SDS011;3405;50.576;12.364;2023-07-31T04:43:09;3.15;;;1.30;;
6735;SDS011;3405;50.576;12.364;2023-07-31T04:45:35;5.35;;;1.85;;
6735;SDS011;3405;50.576;12.364;2023-07-31T04:48:01;4.60;;;1.65;;
6735;SDS011;3405;50.576;12.364;2023-07-31T04:50:27;4.10;;;1.80;;
6735;SDS011;3405;50.576;12.364;2023-07-31T04:52:55;2.58;;;1.48;;
6735;SDS011;3405;50.576;12.364;2023-07-31T04:55:21;3.78;;;1.50;;
6735;SDS011;3405;50.576;12.364;2023-07-31T04:57:47;3.45;;;1.67;;
6735;SDS011;3405;50.576;12.364;2023-07-31T05:00:13;2.35;;;1.17;;
6735;SDS011;3405;50.576;12.364;2023-07-31T05:02:39;2.25;;;1.70;;
6735;SDS011;3405;50.576;12.364;2023-07-31T05:05:04;2.05;;;1.30;;
6735;SDS011;3405;50.576;12.364;2023-07-31T05:07:30;4.50;;;1.40;;
6735;SDS011;3405;50.576;12.364;2023-07-31T05:09:56;5.72;;;1.55;;
6735;SDS011;3405;50.576;12.364;2023-07-31T05:12:22;2.05;;;1.35;;
6735;SDS011;3405;50.576;12.364;2023-07-31T05:14:48;3.65;;;1.48;;
6735;SDS011;3405;50.576;12.364;2023-07-31T05:17:14;4.95;;;1.80;;
6735;SDS011;3405;50.576;12.364;2023-07-31T05:19:40;13.85;;;1.92;;
6735;SDS011;3405;50.576;12.364;2023-07-31T05:22:06;5.25;;;1.83;;
6735;SDS011;3405;50.576;12.364;2023-07-31T05:24:32;6.40;;;2.05;;
6735;SDS011;3405;50.576;12.364;2023-07-31T05:26:58;7.57;;;2.10;;
6735;SDS011;3405;50.576;12.364;2023-07-31T05:29:24;2.58;;;1.65;;
6735;SDS011;3405;50.576;12.364;2023-07-31T05:31:50;3.75;;;1.73;;
6735;SDS011;3405;50.576;12.364;2023-07-31T05:34:16;3.97;;;1.90;;
6735;SDS011;3405;50.576;12.364;2023-07-31T05:36:42;3.88;;;1.35;;
6735;SDS011;3405;50.576;12.364;2023-07-31T05:39:08;2.60;;;1.55;;
6735;SDS011;3405;50.576;12.364;2023-07-31T05:41:35;3.92;;;1.55;;
6735;SDS011;3405;50.576;12.364;2023-07-31T05:44:01;4.65;;;1.70;;
6735;SDS011;3405;50.576;12.364;2023-07-31T05:46:27;3.15;;;1.70;;
6735;SDS011;3405;50.576;12.364;2023-07-31T05:48:53;4.30;;;1.88;;
6735;SDS011;3405;50.576;12.364;2023-07-31T05:51:18;6.05;;;1.90;;
6735;SDS011;3405;50.576;12.364;2023-07-31T05:53:44;5.35;;;1.60;;
6735;SDS011;3405;50.576;12.364;2023-07-31T05:56:10;4.80;;;1.58;;
6735;SDS011;3405;50.576;12.364;2023-07-31T05:58:36;2.90;;;1.50;;
6735;SDS011;3405;50.576;12.364;2023-07-31T06:01:02;5.43;;;1.88;;
6735;SDS011;3405;50.576;12.364;2023-07-31T06:03:28;1.48;;;1.33;;
6735;SDS011;3405;50.576;12.364;2023-07-31T06:05:55;4.65;;;1.92;;
6735;SDS011;3405;50.576;12.364;2023-07-31T06:08:21;5.97;;;1.83;;
6735;SDS011;3405;50.576;12.364;2023-07-31T06:10:47;4.50;;;1.70;;
6735;SDS011;3405;50.576;12.364;2023-07-31T06:13:13;4.65;;;1.75;;
6735;SDS011;3405;50.576;12.364;2023-07-31T06:15:39;4.93;;;1.52;;
6735;SDS011;3405;50.576;12.364;2023-07-31T06:18:05;8.27;;;1.90;;
6735;SDS011;3405;50.576;12.364;2023-07-31T06:20:32;2.97;;;1.55;;
6735;SDS011;3405;50.576;12.364;2023-07-31T06:22:58;3.00;;;1.65;;
6735;SDS011;3405;50.576;12.364;2023-07-31T06:25:24;4.63;;;1.90;;
6735;SDS011;3405;50.576;12.364;2023-07-31T06:27:50;4.85;;;1.70;;
6735;SDS011;3405;50.576;12.364;2023-07-31T06:30:16;4.63;;;1.70;;
6735;SDS011;3405;50.576;12.364;2023-07-31T06:32:42;5.07;;;1.50;;
6735;SDS011;3405;50.576;12.364;2023-07-31T06:35:08;2.80;;;1.50;;
6735;SDS011;3405;50.576;12.364;2023-07-31T06:37:35;4.95;;;2.13;;
6735;SDS011;3405;50.576;12.364;2023-07-31T06:40:01;9.00;;;1.63;;
6735;SDS011;3405;50.576;12.364;2023-07-31T06:42:27;4.38;;;1.45;;
6735;SDS011;3405;50.576;12.364;2023-07-31T06:44:52;6.38;;;2.08;;
6735;SDS011;3405;50.576;12.364;2023-07-31T06:47:18;5.95;;;1.50;;
6735;SDS011;3405;50.576;12.364;2023-07-31T06:49:44;4.40;;;1.70;;
6735;SDS011;3405;50.576;12.364;2023-07-31T06:52:10;6.47;;;1.70;;
6735;SDS011;3405;50.576;12.364;2023-07-31T06:54:36;5.03;;;1.33;;
6735;SDS011;3405;50.576;12.364;2023-07-31T06:57:02;7.10;;;1.70;;
6735;SDS011;3405;50.576;12.364;2023-07-31T06:59:28;5.60;;;1.52;;
6735;SDS011;3405;50.576;12.364;2023-07-31T07:01:54;4.13;;;1.52;;
6735;SDS011;3405;50.576;12.364;2023-07-31T07:04:20;3.35;;;1.30;;
6735;SDS011;3405;50.576;12.364;2023-07-31T07:06:46;4.75;;;1.58;;
6735;SDS011;3405;50.576;12.364;2023-07-31T09:37:51;1.85;;;1.30;;
6735;SDS011;3405;50.576;12.364;2023-07-31T09:40:33;2.88;;;1.50;;
6735;SDS011;3405;50.576;12.364;2023-07-31T09:43:09;2.08;;;1.50;;
6735;SDS011;3405;50.576;12.364;2023-07-31T09:45:36;3.53;;;1.52;;
6735;SDS011;3405;50.576;12.364;2023-07-31T09:48:02;5.72;;;1.65;;
6735;SDS011;3405;50.576;12.364;2023-07-31T09:50:29;4.07;;;1.50;;
6735;SDS011;3405;50.576;12.364;2023-07-31T09:52:56;2.92;;;1.90;;
6735;SDS011;3405;50.576;12.364;2023-07-31T09:55:21;2.67;;;1.70;;
6735;SDS011;3405;50.576;12.364;2023-07-31T09:57:48;3.78;;;2.15;;
